sensor_id;sensor_type;location;lat;lon;timestamp;P1;durP1;ratioP1;P2;durP2;ratioP2
7169;SDS011;3626;42.656;23.312;2023-01-09T00:00:05;64.67;;;26.50;;
7169;SDS011;3626;42.656;23.312;2023-01-09T00:00:15;61.37;;;26.15;;
7169;SDS011;3626;42.656;23.312;2023-01-09T00:00:22;58.75;;;25.88;;
7169;SDS011;3626;42.656;23.312;2023-01-09T00:00:30;59.80;;;26.20;;
7169;SDS011;3626;42.656;23.312;2023-01-09T00:00:36;59.95;;;26.15;;
7169;SDS011;3626;42.656;23.312;2023-01-09T00:00:42;60.28;;;26.10;;
7169;SDS011;3626;42.656;23.312;2023-01-09T00:00:49;60.70;;;26.03;;
7169;SDS011;3626;42.656;23.312;2023-01-09T00:00:55;60.67;;;26.20;;
7169;SDS011;3626;42.656;23.312;2023-01-09T00:01:01;60.83;;;26.20;;
7169;SDS011;3626;42.656;23.312;2023-01-09T00:01:16;62.69;;;26.94;;
7169;SDS011;3626;42.656;23.312;2023-01-09T00:01:24;62.67;;;26.61;;
7169;SDS011;3626;42.656;23.312;2023-01-09T00:01:32;61.03;;;26.20;;
7169;SDS011;3626;42.656;23.312;2023-01-09T00:01:42;62.38;;;26.60;;
7169;SDS011;3626;42.656;23.312;2023-01-09T00:01:50;61.90;;;26.10;;
7169;SDS011;3626;42.656;23.312;2023-01-09T00:01:56;60.60;;;25.37;;
7169;SDS011;3626;42.656;23.312;2023-01-09T00:02:02;63.38;;;25.75;;
7169;SDS011;3626;42.656;23.312;2023-01-09T00:02:08;63.13;;;25.55;;
7169;SDS011;3626;42.656;23.312;2023-01-09T00:02:14;62.45;;;25.13;;
7169;SDS011;3626;42.656;23.312;2023-01-09T00:02:20;62.22;;;25.30;;
7169;SDS011;3626;42.656;23.312;2023-01-09T00:02:26;62.83;;;25.58;;
7169;SDS011;3626;42.656;23.312;2023-01-09T00:02:31;62.47;;;25.60;;
7169;SDS011;3626;42.656;23.312;2023-01-09T00:02:37;62.37;;;25.67;;
7169;SDS011;3626;42.656;23.312;2023-01-09T00:02:44;60.70;;;25.37;;
7169;SDS011;3626;42.656;23.312;2023-01-09T00:02:50;60.40;;;25.40;;
7169;SDS011;3626;42.656;23.312;2023-01-09T00:02:56;59.90;;;25.45;;
7169;SDS011;3626;42.656;23.312;2023-01-09T00:03:03;59.37;;;25.17;;
7169;SDS011;3626;42.656;23.312;2023-01-09T00:03:09;61.90;;;25.80;;
7169;SDS011;3626;42.656;23.312;2023-01-09T00:03:14;62.75;;;26.45;;
7169;SDS011;3626;42.656;23.312;2023-01-09T00:03:20;63.65;;;26.50;;
7169;SDS011;3626;42.656;23.312;2023-01-09T00:03:26;64.40;;;26.60;;
7169;SDS011;3626;42.656;23.312;2023-01-09T00:03:32;64.40;;;26.63;;
7169;SDS011;3626;42.656;23.312;2023-01-09T00:03:37;65.18;;;26.80;;
7169;SDS011;3626;42.656;23.312;2023-01-09T00:03:43;65.50;;;26.90;;
7169;SDS011;3626;42.656;23.312;2023-01-09T00:03:49;65.70;;;27.10;;
7169;SDS011;3626;42.656;23.312;2023-01-09T00:03:55;64.93;;;27.10;;
7169;SDS011;3626;42.656;23.312;2023-01-09T00:04:01;65.18;;;26.95;;
7169;SDS011;3626;42.656;23.312;2023-01-09T00:04:07;62.67;;;26.30;;
7169;SDS011;3626;42.656;23.312;2023-01-09T00:04:14;62.83;;;25.83;;
7169;SDS011;3626;42.656;23.312;2023-01-09T00:04:20;62.70;;;25.83;;
7169;SDS011;3626;42.656;23.312;2023-01-09T00:04:26;63.05;;;25.92;;
7169;SDS011;3626;42.656;23.312;2023-01-09T00:04:32;63.83;;;25.87;;
7169;SDS011;3626;42.656;23.312;2023-01-09T00:04:39;64.85;;;25.85;;
7169;SDS011;3626;42.656;23.312;2023-01-09T00:04:45;63.33;;;25.63;;
7169;SDS011;3626;42.656;23.312;2023-01-09T00:04:51;64.43;;;25.70;;
7169;SDS011;3626;42.656;23.312;2023-01-09T00:04:56;65.87;;;25.57;;
7169;SDS011;3626;42.656;23.312;2023-01-09T00:05:02;64.28;;;25.90;;
7169;SDS011;3626;42.656;23.312;2023-01-09T00:05:09;63.03;;;26.03;;
7169;SDS011;3626;42.656;23.312;2023-01-09T00:05:16;63.05;;;26.42;;
7169;SDS011;3626;42.656;23.312;2023-01-09T00:05:23;62.30;;;26.23;;
7169;SDS011;3626;42.656;23.312;2023-01-09T00:05:29;61.63;;;26.30;;
7169;SDS011;3626;42.656;23.312;2023-01-09T00:05:36;61.83;;;26.27;;
7169;SDS011;3626;42.656;23.312;2023-01-09T00:05:42;62.73;;;26.30;;
7169;SDS011;3626;42.656;23.312;2023-01-09T00:05:47;63.58;;;26.30;;
7169;SDS011;3626;42.656;23.312;2023-01-09T00:05:53;64.03;;;26.75;;
7169;SDS011;3626;42.656;23.312;2023-01-09T00:05:59;63.30;;;26.65;;
7169;SDS011;3626;42.656;23.312;2023-01-09T00:06:05;62.65;;;26.58;;
7169;SDS011;3626;42.656;23.312;2023-01-09T00:06:11;63.43;;;26.50;;
7169;SDS011;3626;42.656;23.312;2023-01-09T00:06:17;62.78;;;26.05;;
7169;SDS011;3626;42.656;23.312;2023-01-09T00:06:23;65.40;;;26.47;;
7169;SDS011;3626;42.656;23.312;2023-01-09T00:06:29;66.72;;;26.45;;
7169;SDS011;3626;42.656;23.312;2023-01-09T00:06:35;66.35;;;26.60;;
7169;SDS011;3626;42.656;23.312;2023-01-09T00:06:41;66.85;;;26.63;;
7169;SDS011;3626;42.656;23.312;2023-01-09T00:06:47;67.10;;;26.83;;
7169;SDS011;3626;42.656;23.312;2023-01-09T00:06:58;65.33;;;26.52;;
7169;SDS011;3626;42.656;23.312;2023-01-09T00:07:03;65.73;;;26.80;;
7169;SDS011;3626;42.656;23.312;2023-01-09T00:07:09;65.38;;;26.70;;
7169;SDS011;3626;42.656;23.312;2023-01-09T00:07:15;65.63;;;26.80;;
7169;SDS011;3626;42.656;23.312;2023-01-09T00:07:20;64.45;;;26.73;;
7169;SDS011;3626;42.656;23.312;2023-01-09T00:07:26;61.40;;;26.40;;
7169;SDS011;3626;42.656;23.312;2023-01-09T00:07:32;61.67;;;26.33;;
7169;SDS011;3626;42.656;23.312;2023-01-09T00:07:40;61.33;;;26.40;;
7169;SDS011;3626;42.656;23.312;2023-01-09T00:07:46;61.53;;;26.30;;
7169;SDS011;3626;42.656;23.312;2023-01-09T00:07:52;61.85;;;26.25;;
7169;SDS011;3626;42.656;23.312;2023-01-09T00:07:58;62.60;;;26.35;;
7169;SDS011;3626;42.656;23.312;2023-01-09T00:08:03;63.35;;;26.30;;
7169;SDS011;3626;42.656;23.312;2023-01-09T00:08:10;62.40;;;26.20;;
7169;SDS011;3626;42.656;23.312;2023-01-09T00:08:16;61.13;;;26.17;;
7169;SDS011;3626;42.656;23.312;2023-01-09T00:08:22;61.94;;;26.08;;
7169;SDS011;3626;42.656;23.312;2023-01-09T00:08:28;62.83;;;26.03;;
7169;SDS011;3626;42.656;23.312;2023-01-09T00:08:35;63.42;;;26.26;;
7169;SDS011;3626;42.656;23.312;2023-01-09T00:08:40;61.20;;;25.95;;
7169;SDS011;3626;42.656;23.312;2023-01-09T00:08:49;61.90;;;26.02;;
7169;SDS011;3626;42.656;23.312;2023-01-09T00:08:54;61.42;;;26.23;;
7169;SDS011;3626;42.656;23.312;2023-01-09T00:09:00;61.38;;;25.92;;
7169;SDS011;3626;42.656;23.312;2023-01-09T00:09:07;62.35;;;25.75;;
7169;SDS011;3626;42.656;23.312;2023-01-09T00:09:13;61.50;;;25.60;;
7169;SDS011;3626;42.656;23.312;2023-01-09T00:09:18;60.95;;;25.55;;
7169;SDS011;3626;42.656;23.312;2023-01-09T00:09:25;60.07;;;25.57;;
7169;SDS011;3626;42.656;23.312;2023-01-09T00:09:30;59.65;;;25.38;;
7169;SDS011;3626;42.656;23.312;2023-01-09T00:09:36;60.40;;;25.33;;
7169;SDS011;3626;42.656;23.312;2023-01-09T00:09:43;60.63;;;25.33;;
7169;SDS011;3626;42.656;23.312;2023-01-09T00:09:49;59.70;;;25.17;;
7169;SDS011;3626;42.656;23.312;2023-01-09T00:09:54;59.25;;;24.83;;
7169;SDS011;3626;42.656;23.312;2023-01-09T00:10:00;58.60;;;24.90;;
7169;SDS011;3626;42.656;23.312;2023-01-09T00:10:06;58.95;;;24.88;;
7169;SDS011;3626;42.656;23.312;2023-01-09T00:10:13;60.02;;;25.02;;
7169;SDS011;3626;42.656;23.312;2023-01-09T00:10:19;60.35;;;24.90;;
7169;SDS011;3626;42.656;23.312;2023-01-09T00:10:25;61.17;;;25.25;;
7169;SDS011;3626;42.656;23.312;2023-01-09T00:10:31;60.30;;;25.40;;
7169;SDS011;3626;42.656;23.312;2023-01-09T00:10:36;58.25;;;25.15;;
7169;SDS011;3626;42.656;23.312;2023-01-09T00:10:42;59.78;;;24.98;;
7169;SDS011;3626;42.656;23.312;2023-01-09T00:10:48;59.42;;;24.90;;
7169;SDS011;3626;42.656;23.312;2023-01-09T00:10:54;58.80;;;24.97;;
7169;SDS011;3626;42.656;23.312;2023-01-09T00:11:00;58.55;;;25.08;;
7169;SDS011;3626;42.656;23.312;2023-01-09T00:11:07;55.88;;;24.84;;
7169;SDS011;3626;42.656;23.312;2023-01-09T00:11:13;53.07;;;23.90;;
7169;SDS011;3626;42.656;23.312;2023-01-09T00:11:19;53.28;;;23.73;;
7169;SDS011;3626;42.656;23.312;2023-01-09T00:11:25;52.63;;;23.00;;
7169;SDS011;3626;42.656;23.312;2023-01-09T00:11:31;53.23;;;22.60;;
7169;SDS011;3626;42.656;23.312;2023-01-09T00:11:37;53.10;;;22.40;;
7169;SDS011;3626;42.656;23.312;2023-01-09T00:11:43;51.90;;;22.38;;
7169;SDS011;3626;42.656;23.312;2023-01-09T00:11:48;51.33;;;22.30;;
7169;SDS011;3626;42.656;23.312;2023-01-09T00:11:54;50.97;;;21.87;;
7169;SDS011;3626;42.656;23.312;2023-01-09T00:12:01;50.08;;;21.58;;
7169;SDS011;3626;42.656;23.312;2023-01-09T00:12:07;50.55;;;21.50;;
7169;SDS011;3626;42.656;23.312;2023-01-09T00:12:12;50.65;;;21.58;;
7169;SDS011;3626;42.656;23.312;2023-01-09T00:12:18;51.33;;;21.73;;
7169;SDS011;3626;42.656;23.312;2023-01-09T00:12:25;51.40;;;21.50;;
7169;SDS011;3626;42.656;23.312;2023-01-09T00:12:31;50.72;;;21.45;;
7169;SDS011;3626;42.656;23.312;2023-01-09T00:12:37;50.35;;;21.50;;
7169;SDS011;3626;42.656;23.312;2023-01-09T00:12:43;49.65;;;21.25;;
7169;SDS011;3626;42.656;23.312;2023-01-09T00:12:48;48.65;;;21.05;;
7169;SDS011;3626;42.656;23.312;2023-01-09T00:12:55;47.87;;;21.00;;
7169;SDS011;3626;42.656;23.312;2023-01-09T00:13:00;47.65;;;20.70;;
7169;SDS011;3626;42.656;23.312;2023-01-09T00:13:06;47.27;;;20.90;;
7169;SDS011;3626;42.656;23.312;2023-01-09T00:13:15;48.10;;;21.40;;
7169;SDS011;3626;42.656;23.312;2023-01-09T00:13:22;46.27;;;21.53;;
7169;SDS011;3626;42.656;23.312;2023-01-09T00:13:27;46.00;;;21.58;;
7169;SDS011;3626;42.656;23.312;2023-01-09T00:13:33;45.00;;;21.15;;
7169;SDS011;3626;42.656;23.312;2023-01-09T00:13:40;43.10;;;20.86;;
7169;SDS011;3626;42.656;23.312;2023-01-09T00:13:46;43.83;;;20.53;;
7169;SDS011;3626;42.656;23.312;2023-01-09T00:13:52;46.65;;;20.85;;
7169;SDS011;3626;42.656;23.312;2023-01-09T00:13:57;46.72;;;21.15;;
7169;SDS011;3626;42.656;23.312;2023-01-09T00:14:03;45.80;;;20.95;;
7169;SDS011;3626;42.656;23.312;2023-01-09T00:14:09;45.47;;;20.63;;
7169;SDS011;3626;42.656;23.312;2023-01-09T00:14:15;43.63;;;20.10;;
7169;SDS011;3626;42.656;23.312;2023-01-09T00:14:21;44.18;;;20.18;;
7169;SDS011;3626;42.656;23.312;2023-01-09T00:14:28;45.25;;;20.48;;
7169;SDS011;3626;42.656;23.312;2023-01-09T00:14:33;45.60;;;20.67;;
7169;SDS011;3626;42.656;23.312;2023-01-09T00:14:39;47.08;;;20.90;;
7169;SDS011;3626;42.656;23.312;2023-01-09T00:14:45;47.60;;;21.03;;
7169;SDS011;3626;42.656;23.312;2023-01-09T00:14:51;45.40;;;21.00;;
7169;SDS011;3626;42.656;23.312;2023-01-09T00:14:58;46.98;;;21.35;;
7169;SDS011;3626;42.656;23.312;2023-01-09T00:15:05;48.08;;;21.67;;
7169;SDS011;3626;42.656;23.312;2023-01-09T00:15:11;49.30;;;22.06;;
7169;SDS011;3626;42.656;23.312;2023-01-09T00:15:18;49.30;;;22.15;;
7169;SDS011;3626;42.656;23.312;2023-01-09T00:15:24;47.73;;;22.07;;
7169;SDS011;3626;42.656;23.312;2023-01-09T00:15:30;47.33;;;22.02;;
7169;SDS011;3626;42.656;23.312;2023-01-09T00:15:36;46.40;;;21.83;;
7169;SDS011;3626;42.656;23.312;2023-01-09T00:15:42;46.33;;;21.77;;
7169;SDS011;3626;42.656;23.312;2023-01-09T00:15:48;47.28;;;21.90;;
7169;SDS011;3626;42.656;23.312;2023-01-09T00:15:54;46.55;;;22.10;;
7169;SDS011;3626;42.656;23.312;2023-01-09T00:16:00;45.90;;;21.90;;
7169;SDS011;3626;42.656;23.312;2023-01-09T00:16:06;46.75;;;21.90;;
7169;SDS011;3626;42.656;23.312;2023-01-09T00:16:14;48.77;;;22.20;;
7169;SDS011;3626;42.656;23.312;2023-01-09T00:16:20;49.90;;;22.36;;
7169;SDS011;3626;42.656;23.312;2023-01-09T00:16:26;51.10;;;22.30;;
7169;SDS011;3626;42.656;23.312;2023-01-09T00:16:32;54.80;;;22.83;;
7169;SDS011;3626;42.656;23.312;2023-01-09T00:16:37;56.57;;;23.30;;
7169;SDS011;3626;42.656;23.312;2023-01-09T00:16:43;55.72;;;23.45;;
7169;SDS011;3626;42.656;23.312;2023-01-09T00:16:49;54.63;;;23.05;;
7169;SDS011;3626;42.656;23.312;2023-01-09T00:16:55;53.85;;;22.58;;
7169;SDS011;3626;42.656;23.312;2023-01-09T00:17:01;53.88;;;22.75;;
7169;SDS011;3626;42.656;23.312;2023-01-09T00:17:06;52.67;;;22.60;;
7169;SDS011;3626;42.656;23.312;2023-01-09T00:17:12;50.67;;;22.43;;
7169;SDS011;3626;42.656;23.312;2023-01-09T00:17:18;50.53;;;22.25;;
7169;SDS011;3626;42.656;23.312;2023-01-09T00:17:25;50.60;;;22.28;;
7169;SDS011;3626;42.656;23.312;2023-01-09T00:17:30;46.45;;;21.52;;
7169;SDS011;3626;42.656;23.312;2023-01-09T00:17:36;45.17;;;21.40;;
7169;SDS011;3626;42.656;23.312;2023-01-09T00:17:42;45.33;;;21.33;;
7169;SDS011;3626;42.656;23.312;2023-01-09T00:17:48;45.78;;;21.45;;
7169;SDS011;3626;42.656;23.312;2023-01-09T00:17:54;46.10;;;21.55;;
7169;SDS011;3626;42.656;23.312;2023-01-09T00:17:59;45.75;;;21.50;;
7169;SDS011;3626;42.656;23.312;2023-01-09T00:18:05;45.63;;;21.43;;
7169;SDS011;3626;42.656;23.312;2023-01-09T00:18:11;46.13;;;21.07;;
7169;SDS011;3626;42.656;23.312;2023-01-09T00:18:17;47.17;;;20.80;;
7169;SDS011;3626;42.656;23.312;2023-01-09T00:18:22;47.20;;;20.70;;
7169;SDS011;3626;42.656;23.312;2023-01-09T00:18:28;47.88;;;21.15;;
7169;SDS011;3626;42.656;23.312;2023-01-09T00:18:34;48.37;;;21.37;;
7169;SDS011;3626;42.656;23.312;2023-01-09T00:18:42;47.75;;;21.17;;
7169;SDS011;3626;42.656;23.312;2023-01-09T00:18:47;48.35;;;21.23;;
7169;SDS011;3626;42.656;23.312;2023-01-09T00:18:53;48.63;;;21.30;;
7169;SDS011;3626;42.656;23.312;2023-01-09T00:18:59;49.00;;;21.37;;
7169;SDS011;3626;42.656;23.312;2023-01-09T00:19:05;49.15;;;21.55;;
7169;SDS011;3626;42.656;23.312;2023-01-09T00:19:11;49.13;;;21.90;;
7169;SDS011;3626;42.656;23.312;2023-01-09T00:19:17;48.40;;;22.20;;
7169;SDS011;3626;42.656;23.312;2023-01-09T00:19:22;47.63;;;22.42;;
7169;SDS011;3626;42.656;23.312;2023-01-09T00:19:28;48.95;;;22.73;;
7169;SDS011;3626;42.656;23.312;2023-01-09T00:19:34;48.50;;;22.60;;
7169;SDS011;3626;42.656;23.312;2023-01-09T00:19:40;47.20;;;22.30;;
7169;SDS011;3626;42.656;23.312;2023-01-09T00:19:45;46.42;;;22.33;;
7169;SDS011;3626;42.656;23.312;2023-01-09T00:19:51;46.45;;;22.27;;
7169;SDS011;3626;42.656;23.312;2023-01-09T00:19:58;45.53;;;21.93;;
7169;SDS011;3626;42.656;23.312;2023-01-09T00:20:05;45.37;;;21.87;;
7169;SDS011;3626;42.656;23.312;2023-01-09T00:20:13;45.77;;;21.83;;
7169;SDS011;3626;42.656;23.312;2023-01-09T00:20:19;45.47;;;21.92;;
7169;SDS011;3626;42.656;23.312;2023-01-09T00:20:25;44.57;;;21.60;;
7169;SDS011;3626;42.656;23.312;2023-01-09T00:20:30;43.72;;;21.02;;
7169;SDS011;3626;42.656;23.312;2023-01-09T00:20:36;44.65;;;21.08;;
7169;SDS011;3626;42.656;23.312;2023-01-09T00:20:42;45.60;;;21.02;;
7169;SDS011;3626;42.656;23.312;2023-01-09T00:20:48;47.13;;;21.07;;
7169;SDS011;3626;42.656;23.312;2023-01-09T00:20:53;47.88;;;21.13;;
7169;SDS011;3626;42.656;23.312;2023-01-09T00:20:59;48.28;;;21.05;;
7169;SDS011;3626;42.656;23.312;2023-01-09T00:21:07;47.92;;;20.98;;
7169;SDS011;3626;42.656;23.312;2023-01-09T00:21:15;47.38;;;20.50;;
7169;SDS011;3626;42.656;23.312;2023-01-09T00:21:21;45.90;;;20.07;;
7169;SDS011;3626;42.656;23.312;2023-01-09T00:21:27;44.45;;;19.83;;
7169;SDS011;3626;42.656;23.312;2023-01-09T00:21:33;45.35;;;20.35;;
7169;SDS011;3626;42.656;23.312;2023-01-09T00:21:39;45.10;;;20.43;;
7169;SDS011;3626;42.656;23.312;2023-01-09T00:21:45;43.42;;;20.17;;
7169;SDS011;3626;42.656;23.312;2023-01-09T00:21:51;42.58;;;19.75;;
7169;SDS011;3626;42.656;23.312;2023-01-09T00:21:56;43.23;;;19.70;;
7169;SDS011;3626;42.656;23.312;2023-01-09T00:22:02;42.92;;;19.75;;
7169;SDS011;3626;42.656;23.312;2023-01-09T00:22:08;44.20;;;20.15;;
7169;SDS011;3626;42.656;23.312;2023-01-09T00:22:15;44.70;;;20.30;;
7169;SDS011;3626;42.656;23.312;2023-01-09T00:22:21;46.50;;;20.67;;
7169;SDS011;3626;42.656;23.312;2023-01-09T00:22:26;48.23;;;21.37;;
7169;SDS011;3626;42.656;23.312;2023-01-09T00:22:32;48.38;;;21.17;;
7169;SDS011;3626;42.656;23.312;2023-01-09T00:22:38;48.65;;;21.27;;
7169;SDS011;3626;42.656;23.312;2023-01-09T00:22:43;49.40;;;21.83;;
7169;SDS011;3626;42.656;23.312;2023-01-09T00:22:49;49.57;;;22.30;;
7169;SDS011;3626;42.656;23.312;2023-01-09T00:22:55;49.67;;;22.38;;
7169;SDS011;3626;42.656;23.312;2023-01-09T00:23:01;53.35;;;22.63;;
7169;SDS011;3626;42.656;23.312;2023-01-09T00:23:07;52.70;;;22.03;;
7169;SDS011;3626;42.656;23.312;2023-01-09T00:23:12;52.08;;;22.23;;
7169;SDS011;3626;42.656;23.312;2023-01-09T00:23:18;51.78;;;22.13;;
7169;SDS011;3626;42.656;23.312;2023-01-09T00:23:24;51.83;;;22.10;;
7169;SDS011;3626;42.656;23.312;2023-01-09T00:23:30;52.35;;;22.10;;
7169;SDS011;3626;42.656;23.312;2023-01-09T00:23:37;50.68;;;22.06;;
7169;SDS011;3626;42.656;23.312;2023-01-09T00:23:43;50.27;;;21.70;;
7169;SDS011;3626;42.656;23.312;2023-01-09T00:23:49;50.15;;;21.55;;
7169;SDS011;3626;42.656;23.312;2023-01-09T00:23:57;47.26;;;21.46;;
7169;SDS011;3626;42.656;23.312;2023-01-09T00:24:03;45.63;;;21.50;;
7169;SDS011;3626;42.656;23.312;2023-01-09T00:24:10;46.54;;;21.96;;
7169;SDS011;3626;42.656;23.312;2023-01-09T00:24:16;47.35;;;21.98;;
7169;SDS011;3626;42.656;23.312;2023-01-09T00:24:21;48.40;;;22.02;;
7169;SDS011;3626;42.656;23.312;2023-01-09T00:24:27;47.72;;;21.80;;
7169;SDS011;3626;42.656;23.312;2023-01-09T00:24:34;48.37;;;21.97;;
7169;SDS011;3626;42.656;23.312;2023-01-09T00:24:40;50.03;;;22.17;;
7169;SDS011;3626;42.656;23.312;2023-01-09T00:24:46;50.22;;;22.30;;
7169;SDS011;3626;42.656;23.312;2023-01-09T00:24:51;49.25;;;22.20;;
7169;SDS011;3626;42.656;23.312;2023-01-09T00:24:57;49.72;;;22.23;;
7169;SDS011;3626;42.656;23.312;2023-01-09T00:25:03;49.85;;;22.40;;
7169;SDS011;3626;42.656;23.312;2023-01-09T00:25:11;49.13;;;22.20;;
7169;SDS011;3626;42.656;23.312;2023-01-09T00:25:17;49.92;;;22.25;;
7169;SDS011;3626;42.656;23.312;2023-01-09T00:25:22;49.13;;;22.10;;
7169;SDS011;3626;42.656;23.312;2023-01-09T00:25:28;50.17;;;21.92;;
7169;SDS011;3626;42.656;23.312;2023-01-09T00:25:34;50.05;;;22.23;;
7169;SDS011;3626;42.656;23.312;2023-01-09T00:25:40;49.28;;;22.20;;
7169;SDS011;3626;42.656;23.312;2023-01-09T00:25:46;50.50;;;22.10;;
7169;SDS011;3626;42.656;23.312;2023-01-09T00:25:59;51.38;;;22.27;;
7169;SDS011;3626;42.656;23.312;2023-01-09T00:26:06;50.92;;;22.27;;
7169;SDS011;3626;42.656;23.312;2023-01-09T00:26:14;50.57;;;22.16;;
7169;SDS011;3626;42.656;23.312;2023-01-09T00:26:21;50.24;;;22.52;;
7169;SDS011;3626;42.656;23.312;2023-01-09T00:26:28;49.67;;;22.70;;
7169;SDS011;3626;42.656;23.312;2023-01-09T00:26:34;50.28;;;22.48;;
7169;SDS011;3626;42.656;23.312;2023-01-09T00:26:40;50.13;;;22.40;;
7169;SDS011;3626;42.656;23.312;2023-01-09T00:26:46;49.10;;;22.38;;
7169;SDS011;3626;42.656;23.312;2023-01-09T00:26:51;48.63;;;22.30;;
7169;SDS011;3626;42.656;23.312;2023-01-09T00:26:57;49.53;;;22.40;;
7169;SDS011;3626;42.656;23.312;2023-01-09T00:27:03;50.33;;;22.50;;
7169;SDS011;3626;42.656;23.312;2023-01-09T00:27:09;50.38;;;22.63;;
7169;SDS011;3626;42.656;23.312;2023-01-09T00:27:14;50.67;;;22.50;;
7169;SDS011;3626;42.656;23.312;2023-01-09T00:27:20;49.20;;;22.15;;
7169;SDS011;3626;42.656;23.312;2023-01-09T00:27:28;48.55;;;22.10;;
7169;SDS011;3626;42.656;23.312;2023-01-09T00:27:35;48.00;;;21.87;;
7169;SDS011;3626;42.656;23.312;2023-01-09T00:27:41;49.22;;;21.98;;
7169;SDS011;3626;42.656;23.312;2023-01-09T00:27:46;48.90;;;21.90;;
7169;SDS011;3626;42.656;23.312;2023-01-09T00:27:53;48.90;;;21.93;;
7169;SDS011;3626;42.656;23.312;2023-01-09T00:27:59;48.97;;;22.00;;
7169;SDS011;3626;42.656;23.312;2023-01-09T00:28:05;49.43;;;22.13;;
7169;SDS011;3626;42.656;23.312;2023-01-09T00:28:11;49.17;;;22.17;;
7169;SDS011;3626;42.656;23.312;2023-01-09T00:28:16;48.47;;;22.33;;
7169;SDS011;3626;42.656;23.312;2023-01-09T00:28:22;47.55;;;21.83;;
7169;SDS011;3626;42.656;23.312;2023-01-09T00:28:28;46.87;;;21.60;;
7169;SDS011;3626;42.656;23.312;2023-01-09T00:28:34;48.40;;;21.77;;
7169;SDS011;3626;42.656;23.312;2023-01-09T00:28:40;46.15;;;21.35;;
7169;SDS011;3626;42.656;23.312;2023-01-09T00:28:46;46.10;;;21.63;;
7169;SDS011;3626;42.656;23.312;2023-01-09T00:28:53;45.72;;;21.27;;
7169;SDS011;3626;42.656;23.312;2023-01-09T00:28:59;44.53;;;20.73;;
7169;SDS011;3626;42.656;23.312;2023-01-09T00:29:05;43.95;;;20.67;;
7169;SDS011;3626;42.656;23.312;2023-01-09T00:29:10;42.28;;;20.27;;
7169;SDS011;3626;42.656;23.312;2023-01-09T00:29:17;43.58;;;20.28;;
7169;SDS011;3626;42.656;23.312;2023-01-09T00:29:23;43.93;;;20.50;;
7169;SDS011;3626;42.656;23.312;2023-01-09T00:29:29;44.63;;;20.50;;
7169;SDS011;3626;42.656;23.312;2023-01-09T00:29:34;43.75;;;20.63;;
7169;SDS011;3626;42.656;23.312;2023-01-09T00:29:40;45.00;;;21.10;;
7169;SDS011;3626;42.656;23.312;2023-01-09T00:29:48;47.15;;;21.53;;
7169;SDS011;3626;42.656;23.312;2023-01-09T00:29:54;48.70;;;21.90;;
7169;SDS011;3626;42.656;23.312;2023-01-09T00:30:02;48.98;;;22.06;;
7169;SDS011;3626;42.656;23.312;2023-01-09T00:30:08;49.88;;;22.02;;
7169;SDS011;3626;42.656;23.312;2023-01-09T00:30:15;49.62;;;22.12;;
7169;SDS011;3626;42.656;23.312;2023-01-09T00:30:22;49.97;;;22.05;;
7169;SDS011;3626;42.656;23.312;2023-01-09T00:30:28;50.47;;;22.07;;
7169;SDS011;3626;42.656;23.312;2023-01-09T00:30:35;49.23;;;21.80;;
7169;SDS011;3626;42.656;23.312;2023-01-09T00:30:40;48.60;;;21.47;;
7169;SDS011;3626;42.656;23.312;2023-01-09T00:30:54;47.25;;;20.67;;
7169;SDS011;3626;42.656;23.312;2023-01-09T00:31:00;44.69;;;20.40;;
7169;SDS011;3626;42.656;23.312;2023-01-09T00:31:07;43.80;;;20.40;;
7169;SDS011;3626;42.656;23.312;2023-01-09T00:31:14;43.35;;;20.15;;
7169;SDS011;3626;42.656;23.312;2023-01-09T00:31:20;43.78;;;20.15;;
7169;SDS011;3626;42.656;23.312;2023-01-09T00:31:26;43.47;;;20.42;;
7169;SDS011;3626;42.656;23.312;2023-01-09T00:31:32;43.13;;;20.63;;
7169;SDS011;3626;42.656;23.312;2023-01-09T00:31:37;44.67;;;20.70;;
7169;SDS011;3626;42.656;23.312;2023-01-09T00:31:43;43.53;;;20.67;;
7169;SDS011;3626;42.656;23.312;2023-01-09T00:31:50;43.64;;;20.40;;
7169;SDS011;3626;42.656;23.312;2023-01-09T00:31:55;44.05;;;20.05;;
7169;SDS011;3626;42.656;23.312;2023-01-09T00:32:01;44.53;;;20.10;;
7169;SDS011;3626;42.656;23.312;2023-01-09T00:32:07;44.30;;;19.98;;
7169;SDS011;3626;42.656;23.312;2023-01-09T00:32:14;45.18;;;20.32;;
7169;SDS011;3626;42.656;23.312;2023-01-09T00:32:20;45.72;;;20.33;;
7169;SDS011;3626;42.656;23.312;2023-01-09T00:32:26;44.92;;;20.05;;
7169;SDS011;3626;42.656;23.312;2023-01-09T00:32:32;44.10;;;19.70;;
7169;SDS011;3626;42.656;23.312;2023-01-09T00:32:38;43.17;;;19.65;;
7169;SDS011;3626;42.656;23.312;2023-01-09T00:32:45;44.28;;;20.10;;
7169;SDS011;3626;42.656;23.312;2023-01-09T00:32:50;45.03;;;20.80;;
7169;SDS011;3626;42.656;23.312;2023-01-09T00:32:57;44.10;;;20.90;;
7169;SDS011;3626;42.656;23.312;2023-01-09T00:33:03;44.55;;;20.83;;
7169;SDS011;3626;42.656;23.312;2023-01-09T00:33:10;45.23;;;20.90;;
7169;SDS011;3626;42.656;23.312;2023-01-09T00:33:17;43.00;;;20.40;;
7169;SDS011;3626;42.656;23.312;2023-01-09T00:33:24;42.60;;;20.33;;
7169;SDS011;3626;42.656;23.312;2023-01-09T00:33:33;42.61;;;20.45;;
7169;SDS011;3626;42.656;23.312;2023-01-09T00:33:43;41.97;;;20.33;;
7169;SDS011;3626;42.656;23.312;2023-01-09T00:33:54;40.83;;;19.95;;
7169;SDS011;3626;42.656;23.312;2023-01-09T00:34:03;40.65;;;20.01;;
7169;SDS011;3626;42.656;23.312;2023-01-09T00:34:11;40.35;;;19.95;;
7169;SDS011;3626;42.656;23.312;2023-01-09T00:34:17;40.15;;;19.90;;
7169;SDS011;3626;42.656;23.312;2023-01-09T00:34:23;39.78;;;19.90;;
7169;SDS011;3626;42.656;23.312;2023-01-09T00:34:30;39.30;;;20.10;;
7169;SDS011;3626;42.656;23.312;2023-01-09T00:34:35;39.65;;;20.48;;
7169;SDS011;3626;42.656;23.312;2023-01-09T00:34:42;41.16;;;20.58;;
7169;SDS011;3626;42.656;23.312;2023-01-09T00:34:48;41.90;;;20.93;;
7169;SDS011;3626;42.656;23.312;2023-01-09T00:34:54;43.63;;;21.50;;
7169;SDS011;3626;42.656;23.312;2023-01-09T00:35:02;43.58;;;21.20;;
7169;SDS011;3626;42.656;23.312;2023-01-09T00:35:08;44.57;;;21.30;;
7169;SDS011;3626;42.656;23.312;2023-01-09T00:35:19;46.74;;;21.74;;
7169;SDS011;3626;42.656;23.312;2023-01-09T00:35:28;48.42;;;21.70;;
7169;SDS011;3626;42.656;23.312;2023-01-09T00:35:33;48.20;;;21.33;;
7169;SDS011;3626;42.656;23.312;2023-01-09T00:35:39;47.35;;;20.90;;
7169;SDS011;3626;42.656;23.312;2023-01-09T00:35:45;46.63;;;20.60;;
7169;SDS011;3626;42.656;23.312;2023-01-09T00:35:51;45.70;;;20.27;;
7169;SDS011;3626;42.656;23.312;2023-01-09T00:35:57;45.37;;;20.40;;
7169;SDS011;3626;42.656;23.312;2023-01-09T00:36:04;45.37;;;20.37;;
7169;SDS011;3626;42.656;23.312;2023-01-09T00:36:10;43.80;;;20.00;;
7169;SDS011;3626;42.656;23.312;2023-01-09T00:36:16;43.13;;;20.10;;
7169;SDS011;3626;42.656;23.312;2023-01-09T00:36:22;42.60;;;20.20;;
7169;SDS011;3626;42.656;23.312;2023-01-09T00:36:28;42.58;;;20.40;;
7169;SDS011;3626;42.656;23.312;2023-01-09T00:36:34;43.60;;;21.05;;
7169;SDS011;3626;42.656;23.312;2023-01-09T00:36:40;44.30;;;21.58;;
7169;SDS011;3626;42.656;23.312;2023-01-09T00:36:45;47.30;;;21.60;;
7169;SDS011;3626;42.656;23.312;2023-01-09T00:36:51;48.30;;;21.75;;
7169;SDS011;3626;42.656;23.312;2023-01-09T00:37:00;48.76;;;21.59;;
7169;SDS011;3626;42.656;23.312;2023-01-09T00:37:05;48.47;;;21.92;;
7169;SDS011;3626;42.656;23.312;2023-01-09T00:37:15;47.89;;;21.89;;
7169;SDS011;3626;42.656;23.312;2023-01-09T00:37:22;46.97;;;21.63;;
7169;SDS011;3626;42.656;23.312;2023-01-09T00:37:28;46.35;;;21.33;;